Time;durP1;ratioP1;P1;durP2;ratioP2;P2;SDS_P1;SDS_P2;PMS_P1;PMS_P2;Temp;Humidity;BMP_temperature;BMP_pressure;BME280_temperature;BME280_humidity;BME280_pressure;Samples;Min_cycle;Max_cycle;Signal;HPM_P1;HPM_P2
2021/05/07 00:01:09;;;;;;;19.92;14.23;;;;;;;;;;5051929;28;20478;-60
2021/05/07 00:03:35;;;;;;;15.05;13.52;;;;;;;;;;5052425;28;20177;-59
2021/05/07 00:06:04;;;;;;;18.42;15.55;;;;;;;;;;5051963;28;20309;-59
2021/05/07 00:08:31;;;;;;;21.65;16.77;;;;;;;;;;5052034;28;20699;-58
2021/05/07 00:10:59;;;;;;;16.88;15.13;;;;;;;;;;5051651;28;20191;-59
2021/05/07 00:13:25;;;;;;;20.33;15.35;;;;;;;;;;5052044;28;20195;-59
2021/05/07 00:15:51;;;;;;;19.90;15.55;;;;;;;;;;5051980;28;20165;-59
2021/05/07 00:18:17;;;;;;;18.67;16.67;;;;;;;;;;5051842;28;20171;-59
2021/05/07 00:20:43;;;;;;;18.73;16.73;;;;;;;;;;5051596;28;20191;-59
2021/05/07 00:23:09;;;;;;;19.50;17.20;;;;;;;;;;5051237;28;20406;-59
2021/05/07 00:25:35;;;;;;;25.40;19.03;;;;;;;;;;5051186;28;20661;-59
2021/05/07 00:28:02;;;;;;;22.13;18.25;;;;;;;;;;5051437;28;20575;-59
2021/05/07 00:30:28;;;;;;;20.90;17.10;;;;;;;;;;5051323;28;20592;-59
2021/05/07 00:32:54;;;;;;;20.93;17.80;;;;;;;;;;5051567;28;20224;-60
2021/05/07 00:35:20;;;;;;;22.95;18.33;;;;;;;;;;5051626;28;20420;-60
2021/05/07 00:37:46;;;;;;;19.93;17.43;;;;;;;;;;5051440;28;20617;-59
2021/05/07 00:40:12;;;;;;;24.37;19.43;;;;;;;;;;5051146;28;20458;-59
2021/05/07 00:42:38;;;;;;;23.50;17.95;;;;;;;;;;5051321;28;20481;-59
2021/05/07 00:45:05;;;;;;;24.10;18.65;;;;;;;;;;5051466;28;20220;-59
2021/05/07 00:47:32;;;;;;;24.20;17.67;;;;;;;;;;5051269;28;20198;-59
2021/05/07 00:49:58;;;;;;;26.50;18.67;;;;;;;;;;5051096;28;20195;-59
2021/05/07 00:52:24;;;;;;;21.73;16.67;;;;;;;;;;5051192;28;20820;-59
2021/05/07 00:54:50;;;;;;;23.00;18.00;;;;;;;;;;5051459;28;20420;-59
2021/05/07 00:57:16;;;;;;;25.00;18.30;;;;;;;;;;5051419;28;20400;-59
2021/05/07 00:59:42;;;;;;;23.87;17.03;;;;;;;;;;5051233;28;20813;-59
2021/05/07 01:02:08;;;;;;;25.45;18.23;;;;;;;;;;5050637;28;20421;-60
2021/05/07 01:04:35;;;;;;;22.83;17.47;;;;;;;;;;5050786;28;20166;-60
2021/05/07 01:07:01;;;;;;;24.27;18.25;;;;;;;;;;5050684;28;20397;-60
2021/05/07 01:09:27;;;;;;;21.92;16.90;;;;;;;;;;5050806;28;20530;-59
2021/05/07 01:11:53;;;;;;;23.67;17.23;;;;;;;;;;5051063;28;20225;-59
2021/05/07 01:14:19;;;;;;;23.73;16.97;;;;;;;;;;5050890;28;20480;-59
2021/05/07 01:16:45;;;;;;;22.20;17.13;;;;;;;;;;5050863;28;20413;-59
2021/05/07 01:19:14;;;;;;;23.30;18.57;;;;;;;;;;5050448;28;20405;-60
2021/05/07 01:21:39;;;;;;;22.88;16.98;;;;;;;;;;5050850;28;20508;-60
2021/05/07 01:24:06;;;;;;;22.20;16.63;;;;;;;;;;5050674;28;20258;-59
2021/05/07 01:26:34;;;;;;;24.27;16.95;;;;;;;;;;5050833;28;20406;-58
2021/05/07 01:29:00;;;;;;;23.52;15.75;;;;;;;;;;5050240;28;20234;-59
2021/05/07 01:31:26;;;;;;;23.90;17.60;;;;;;;;;;5050643;28;20226;-59
2021/05/07 01:33:52;;;;;;;19.60;15.60;;;;;;;;;;5050526;28;20402;-59
2021/05/07 01:36:17;;;;;;;22.53;16.90;;;;;;;;;;5050326;28;20953;-59
2021/05/07 01:38:43;;;;;;;27.90;17.50;;;;;;;;;;5050155;28;20905;-59
2021/05/07 01:41:09;;;;;;;21.43;16.07;;;;;;;;;;5050735;28;20932;-59
2021/05/07 01:43:35;;;;;;;23.60;18.20;;;;;;;;;;5050416;28;21046;-59
2021/05/07 01:46:01;;;;;;;24.80;16.57;;;;;;;;;;5050515;28;20840;-59
2021/05/07 01:48:27;;;;;;;24.70;17.23;;;;;;;;;;5050365;28;20831;-60
2021/05/07 01:50:53;;;;;;;21.17;16.73;;;;;;;;;;5067419;22;20463;-53
2021/05/07 01:53:20;;;;;;;24.77;19.30;;;;;;;;;;5089196;28;20169;-53
2021/05/07 01:55:47;;;;;;;26.15;18.02;;;;;;;;;;5090870;28;20396;-53
2021/05/07 01:58:17;;;;;;;28.75;19.17;;;;;;;;;;5090733;28;20528;-54
2021/05/07 02:00:43;;;;;;;25.50;18.55;;;;;;;;;;5090341;28;20168;-53
2021/05/07 02:03:11;;;;;;;28.08;19.50;;;;;;;;;;5091123;28;20176;-54
2021/05/07 02:05:37;;;;;;;26.00;18.23;;;;;;;;;;5090545;28;20169;-54
2021/05/07 02:08:07;;;;;;;28.03;18.90;;;;;;;;;;5090733;28;20209;-54
2021/05/07 02:10:33;;;;;;;26.63;18.35;;;;;;;;;;5090173;28;20407;-54
2021/05/07 02:13:00;;;;;;;27.70;18.95;;;;;;;;;;5091000;28;20257;-54
2021/05/07 02:15:27;;;;;;;28.10;18.70;;;;;;;;;;5090468;28;20162;-54
2021/05/07 02:17:53;;;;;;;30.42;19.42;;;;;;;;;;5090581;28;20172;-54
2021/05/07 02:20:20;;;;;;;23.98;17.35;;;;;;;;;;5090260;28;20173;-53
2021/05/07 02:22:47;;;;;;;32.13;20.30;;;;;;;;;;5090484;28;20185;-54
2021/05/07 02:25:16;;;;;;;34.72;20.42;;;;;;;;;;5090452;28;20173;-53
2021/05/07 02:27:42;;;;;;;31.55;20.48;;;;;;;;;;5090568;28;20893;-54
2021/05/07 02:30:09;;;;;;;32.30;20.05;;;;;;;;;;5090235;28;20173;-53
2021/05/07 02:32:35;;;;;;;28.88;20.00;;;;;;;;;;5090653;28;20201;-53
2021/05/07 02:35:01;;;;;;;27.77;20.83;;;;;;;;;;5090823;28;20221;-53
2021/05/07 02:37:27;;;;;;;37.60;21.00;;;;;;;;;;5090678;28;20667;-55
2021/05/07 02:39:53;;;;;;;27.50;19.67;;;;;;;;;;5089108;28;20936;-53
2021/05/07 02:42:19;;;;;;;34.00;21.55;;;;;;;;;;5090062;28;20553;-54
2021/05/07 02:44:45;;;;;;;31.33;21.23;;;;;;;;;;5090267;28;20188;-53
2021/05/07 02:47:11;;;;;;;34.75;22.67;;;;;;;;;;5090935;28;20165;-54
2021/05/07 02:49:37;;;;;;;31.08;20.65;;;;;;;;;;5093745;28;20169;-54
2021/05/07 02:52:04;;;;;;;30.05;21.63;;;;;;;;;;5093556;28;20570;-53
2021/05/07 02:54:30;;;;;;;30.55;20.67;;;;;;;;;;5093811;28;20165;-54
2021/05/07 02:56:56;;;;;;;32.08;21.23;;;;;;;;;;5094040;28;20166;-53
2021/05/07 02:59:23;;;;;;;32.17;22.25;;;;;;;;;;5093397;28;20174;-52
2021/05/07 03:01:49;;;;;;;32.90;21.10;;;;;;;;;;5093441;28;20600;-53
2021/05/07 03:04:15;;;;;;;32.28;22.00;;;;;;;;;;5093798;28;20166;-54
2021/05/07 03:06:41;;;;;;;33.27;22.13;;;;;;;;;;5093434;28;20512;-53
2021/05/07 03:09:07;;;;;;;33.63;21.97;;;;;;;;;;5093228;28;20460;-53
2021/05/07 03:11:33;;;;;;;30.63;20.40;;;;;;;;;;5093330;28;20447;-53
2021/05/07 03:13:59;;;;;;;35.55;22.85;;;;;;;;;;5093946;28;20433;-53
2021/05/07 03:16:25;;;;;;;34.07;22.57;;;;;;;;;;5093284;28;20169;-53
2021/05/07 03:18:51;;;;;;;36.33;22.53;;;;;;;;;;5093306;28;20407;-53
2021/05/07 03:21:17;;;;;;;33.33;22.15;;;;;;;;;;5093115;28;20426;-53
2021/05/07 03:23:44;;;;;;;35.00;22.45;;;;;;;;;;5093394;28;20170;-52
2021/05/07 03:26:10;;;;;;;36.75;21.52;;;;;;;;;;5093154;28;20199;-53
2021/05/07 03:28:39;;;;;;;34.40;22.00;;;;;;;;;;5092709;28;20292;-53
2021/05/07 03:31:06;;;;;;;34.80;22.90;;;;;;;;;;5093288;28;20189;-54
2021/05/07 03:33:32;;;;;;;33.28;23.73;;;;;;;;;;5093003;28;20170;-53
2021/05/07 03:35:58;;;;;;;36.40;24.57;;;;;;;;;;5093328;28;20235;-51
2021/05/07 03:38:24;;;;;;;38.57;24.40;;;;;;;;;;5093013;28;20439;-52
2021/05/07 03:40:50;;;;;;;34.30;23.88;;;;;;;;;;5092723;28;20476;-53
2021/05/07 03:43:16;;;;;;;38.73;24.47;;;;;;;;;;5092755;28;20173;-53
2021/05/07 03:45:42;;;;;;;39.97;25.02;;;;;;;;;;5092936;28;20455;-53
2021/05/07 03:48:17;;;;;;;37.90;25.77;;;;;;;;;;5092733;28;20201;-53
2021/05/07 03:50:43;;;;;;;41.83;26.00;;;;;;;;;;5092469;28;20395;-52
2021/05/07 03:53:12;;;;;;;35.63;24.20;;;;;;;;;;5092616;28;20188;-53
2021/05/07 03:55:39;;;;;;;39.65;26.25;;;;;;;;;;5092510;28;20391;-52
2021/05/07 03:58:05;;;;;;;44.30;26.48;;;;;;;;;;5092287;28;20530;-53
2021/05/07 04:00:31;;;;;;;42.75;27.08;;;;;;;;;;5092204;28;20689;-53
2021/05/07 04:02:57;;;;;;;42.50;25.80;;;;;;;;;;5092491;28;20161;-54
2021/05/07 04:05:23;;;;;;;45.27;27.00;;;;;;;;;;5092336;28;20395;-53
2021/05/07 04:08:00;;;;;;;45.20;27.00;;;;;;;;;;5092380;28;20447;-53
2021/05/07 04:10:28;;;;;;;44.50;26.65;;;;;;;;;;5091980;28;20482;-54
2021/05/07 04:15:20;;;;;;;39.97;25.40;;;;;;;;;;5092324;28;20170;-52
2021/05/07 04:17:46;;;;;;;40.07;25.30;;;;;;;;;;5092216;28;20165;-54
2021/05/07 04:20:13;;;;;;;49.38;29.60;;;;;;;;;;5091782;28;20902;-53
2021/05/07 04:22:40;;;;;;;44.53;26.45;;;;;;;;;;5092062;28;20288;-53
2021/05/07 04:25:07;;;;;;;44.13;28.73;;;;;;;;;;5091951;28;20172;-53
2021/05/07 04:27:33;;;;;;;47.97;28.98;;;;;;;;;;5091924;28;20198;-52
2021/05/07 04:29:59;;;;;;;49.00;27.77;;;;;;;;;;5091749;28;20173;-53
2021/05/07 04:32:25;;;;;;;52.83;31.10;;;;;;;;;;5091905;28;20193;-53
2021/05/07 04:34:51;;;;;;;51.80;31.00;;;;;;;;;;5091729;28;20435;-53
2021/05/07 04:37:17;;;;;;;54.88;31.50;;;;;;;;;;5091741;28;20427;-53
2021/05/07 04:39:43;;;;;;;51.83;28.80;;;;;;;;;;5091471;28;20208;-53
2021/05/07 04:42:09;;;;;;;51.23;30.00;;;;;;;;;;5091589;28;20415;-54
2021/05/07 04:44:35;;;;;;;53.38;29.45;;;;;;;;;;5091815;28;20434;-54
2021/05/07 04:47:01;;;;;;;57.57;31.00;;;;;;;;;;5091551;28;20193;-52
2021/05/07 04:49:27;;;;;;;63.03;32.73;;;;;;;;;;5091304;28;20470;-53
2021/05/07 04:51:54;;;;;;;59.95;33.20;;;;;;;;;;5091068;28;20446;-54
2021/05/07 04:54:20;;;;;;;53.28;30.50;;;;;;;;;;5091418;28;20162;-53
2021/05/07 04:56:46;;;;;;;52.78;28.60;;;;;;;;;;5091404;28;20260;-53
2021/05/07 04:59:12;;;;;;;51.60;29.08;;;;;;;;;;5091189;28;20165;-54
2021/05/07 05:01:38;;;;;;;54.93;30.77;;;;;;;;;;5091240;28;20216;-53
2021/05/07 05:04:04;;;;;;;53.00;28.80;;;;;;;;;;5091788;28;20407;-54
2021/05/07 05:06:30;;;;;;;45.40;28.20;;;;;;;;;;5091145;28;20403;-54
2021/05/07 05:08:56;;;;;;;54.80;29.90;;;;;;;;;;5090939;28;20197;-54
2021/05/07 05:11:22;;;;;;;53.07;29.20;;;;;;;;;;5090456;28;20243;-54
2021/05/07 05:13:48;;;;;;;60.67;32.27;;;;;;;;;;5091509;28;20414;-54
2021/05/07 05:16:14;;;;;;;50.17;30.10;;;;;;;;;;5091012;28;20424;-53
2021/05/07 05:18:40;;;;;;;48.80;29.25;;;;;;;;;;5090868;28;20399;-52
2021/05/07 05:21:07;;;;;;;50.53;28.87;;;;;;;;;;5090912;28;20194;-54
2021/05/07 05:23:33;;;;;;;50.47;28.45;;;;;;;;;;5090940;28;20395;-54
2021/05/07 05:26:00;;;;;;;52.55;29.50;;;;;;;;;;5091127;28;20218;-54
2021/05/07 05:28:26;;;;;;;48.10;27.35;;;;;;;;;;5090944;28;20239;-53
2021/05/07 05:30:52;;;;;;;48.10;28.52;;;;;;;;;;5090794;28;20192;-53
2021/05/07 05:33:18;;;;;;;43.95;27.30;;;;;;;;;;5090874;28;20170;-52
2021/05/07 05:35:45;;;;;;;42.10;27.43;;;;;;;;;;5090970;28;20165;-54
2021/05/07 05:38:12;;;;;;;49.88;27.77;;;;;;;;;;5090715;28;20494;-53
2021/05/07 05:40:38;;;;;;;45.08;27.73;;;;;;;;;;5090516;28;20204;-53
2021/05/07 05:43:07;;;;;;;46.93;27.63;;;;;;;;;;5090728;28;20201;-53
2021/05/07 05:45:33;;;;;;;37.42;25.13;;;;;;;;;;5091282;28;20486;-54
2021/05/07 05:48:05;;;;;;;36.80;24.75;;;;;;;;;;5090574;28;20219;-54
2021/05/07 05:50:35;;;;;;;35.03;22.95;;;;;;;;;;5090752;28;20624;-52
2021/05/07 05:53:01;;;;;;;37.70;22.60;;;;;;;;;;5090660;28;20200;-53
2021/05/07 05:55:27;;;;;;;33.13;22.80;;;;;;;;;;5090700;28;20163;-53
2021/05/07 05:57:53;;;;;;;38.42;24.55;;;;;;;;;;5090286;28;20483;-53
2021/05/07 06:00:19;;;;;;;35.33;24.45;;;;;;;;;;5090664;28;20173;-53
2021/05/07 06:02:45;;;;;;;35.57;24.80;;;;;;;;;;5089923;28;20208;-53
2021/05/07 06:05:12;;;;;;;30.70;22.03;;;;;;;;;;5090402;28;20400;-53
2021/05/07 06:07:38;;;;;;;33.60;23.10;;;;;;;;;;5090429;28;20455;-54
2021/05/07 06:10:05;;;;;;;41.23;24.37;;;;;;;;;;5089846;28;20924;-54
2021/05/07 06:12:31;;;;;;;30.70;22.00;;;;;;;;;;5090137;28;20973;-53
2021/05/07 06:14:57;;;;;;;30.83;21.60;;;;;;;;;;5091014;28;20486;-53
2021/05/07 06:17:23;;;;;;;29.50;21.70;;;;;;;;;;5089884;28;20794;-52
2021/05/07 06:19:49;;;;;;;29.40;20.90;;;;;;;;;;5089504;28;20405;-54
2021/05/07 06:22:15;;;;;;;29.47;22.33;;;;;;;;;;5090875;28;20411;-53
2021/05/07 06:24:41;;;;;;;25.57;19.13;;;;;;;;;;5093624;28;21141;-54
2021/05/07 06:27:07;;;;;;;28.47;21.13;;;;;;;;;;5093131;28;20488;-54
2021/05/07 06:29:33;;;;;;;41.70;21.17;;;;;;;;;;5092004;28;20513;-53
2021/05/07 06:31:59;;;;;;;29.10;21.20;;;;;;;;;;5093372;28;20477;-54
2021/05/07 06:34:25;;;;;;;28.97;20.97;;;;;;;;;;5094359;28;20404;-54
2021/05/07 06:36:51;;;;;;;29.57;22.77;;;;;;;;;;5094115;28;20492;-54
2021/05/07 06:39:17;;;;;;;32.27;20.83;;;;;;;;;;5093878;28;20417;-53
2021/05/07 06:41:43;;;;;;;36.30;23.07;;;;;;;;;;5093900;28;20416;-52
2021/05/07 06:44:09;;;;;;;33.28;22.83;;;;;;;;;;5093980;28;20751;-52
2021/05/07 06:46:35;;;;;;;32.00;23.00;;;;;;;;;;5093754;28;20175;-53
2021/05/07 06:49:01;;;;;;;36.13;21.90;;;;;;;;;;5093555;28;20186;-52
2021/05/07 06:51:27;;;;;;;29.87;20.10;;;;;;;;;;5093484;28;20448;-53
2021/05/07 06:53:54;;;;;;;21.00;15.60;;;;;;;;;;5093819;28;20448;-52
2021/05/07 06:56:21;;;;;;;11.95;9.10;;;;;;;;;;5093667;28;20393;-52
2021/05/07 06:58:50;;;;;;;7.93;6.85;;;;;;;;;;5093525;28;20165;-52
2021/05/07 07:01:16;;;;;;;9.13;6.40;;;;;;;;;;5093493;28;20327;-54
2021/05/07 07:03:42;;;;;;;8.10;6.50;;;;;;;;;;5093641;28;20628;-53
2021/05/07 07:06:08;;;;;;;7.43;6.15;;;;;;;;;;5093629;28;20169;-53
2021/05/07 07:08:34;;;;;;;10.77;7.43;;;;;;;;;;5093439;28;20201;-53
2021/05/07 07:11:01;;;;;;;8.10;7.30;;;;;;;;;;5093176;28;20284;-54
2021/05/07 07:13:27;;;;;;;10.32;7.68;;;;;;;;;;5093798;28;20403;-52
2021/05/07 07:15:53;;;;;;;14.98;8.55;;;;;;;;;;5093562;28;20256;-53
2021/05/07 07:18:19;;;;;;;11.83;8.57;;;;;;;;;;5093231;28;20204;-54
2021/05/07 07:20:45;;;;;;;9.32;8.00;;;;;;;;;;5093157;28;20445;-53
2021/05/07 07:23:11;;;;;;;9.73;8.00;;;;;;;;;;5093243;28;20588;-54
2021/05/07 07:25:37;;;;;;;11.53;7.70;;;;;;;;;;5093260;28;20392;-53
2021/05/07 07:28:04;;;;;;;9.30;7.60;;;;;;;;;;5091649;28;20503;-53
2021/05/07 07:30:30;;;;;;;7.70;6.95;;;;;;;;;;5092889;28;20264;-54
2021/05/07 07:32:56;;;;;;;11.07;6.70;;;;;;;;;;5092477;28;20193;-53
2021/05/07 07:35:22;;;;;;;10.23;7.20;;;;;;;;;;5093090;28;20395;-53
2021/05/07 07:37:48;;;;;;;11.43;7.03;;;;;;;;;;5092963;28;20400;-53
2021/05/07 07:40:14;;;;;;;9.13;7.53;;;;;;;;;;5091495;28;20975;-54
2021/05/07 07:42:41;;;;;;;9.13;6.68;;;;;;;;;;5092715;28;20518;-54
2021/05/07 07:45:07;;;;;;;8.98;7.35;;;;;;;;;;5092848;28;20682;-54
2021/05/07 07:47:33;;;;;;;8.50;7.60;;;;;;;;;;5092614;28;20201;-52
2021/05/07 07:49:59;;;;;;;7.83;6.70;;;;;;;;;;5092564;28;20172;-53
2021/05/07 07:52:25;;;;;;;9.90;7.40;;;;;;;;;;5104413;22;20518;-54
2021/05/07 07:54:51;;;;;;;9.52;6.72;;;;;;;;;;5091552;28;20392;-53
2021/05/07 07:57:17;;;;;;;8.83;7.30;;;;;;;;;;5092749;28;20412;-52
2021/05/07 07:59:43;;;;;;;7.53;6.83;;;;;;;;;;5092234;28;20434;-52
2021/05/07 08:02:09;;;;;;;7.80;7.10;;;;;;;;;;5092574;28;20408;-52
2021/05/07 08:04:35;;;;;;;8.93;6.97;;;;;;;;;;5092475;28;20479;-52
2021/05/07 08:07:01;;;;;;;11.37;6.70;;;;;;;;;;5092621;28;20399;-52
2021/05/07 08:09:27;;;;;;;7.10;6.03;;;;;;;;;;5090793;28;20996;-52
2021/05/07 08:11:53;;;;;;;6.00;5.50;;;;;;;;;;5092383;28;20416;-52
2021/05/07 08:14:19;;;;;;;7.27;6.57;;;;;;;;;;5092037;28;20373;-52
2021/05/07 08:16:45;;;;;;;8.35;6.47;;;;;;;;;;5092580;28;20396;-52
2021/05/07 08:19:12;;;;;;;6.57;5.80;;;;;;;;;;5091897;28;20174;-52
2021/05/07 08:21:40;;;;;;;9.70;6.97;;;;;;;;;;5092233;28;20193;-52
2021/05/07 08:24:06;;;;;;;5.57;5.13;;;;;;;;;;5092017;28;20166;-54
2021/05/07 08:26:32;;;;;;;5.47;5.07;;;;;;;;;;5092158;28;20223;-53
2021/05/07 08:28:58;;;;;;;5.67;4.73;;;;;;;;;;5091749;28;20951;-52
2021/05/07 08:31:24;;;;;;;5.57;4.33;;;;;;;;;;5091926;28;21182;-52
2021/05/07 08:33:50;;;;;;;5.50;4.53;;;;;;;;;;5092010;28;20402;-52
2021/05/07 08:36:16;;;;;;;4.33;4.03;;;;;;;;;;5091907;28;20399;-53
2021/05/07 08:38:42;;;;;;;3.80;3.50;;;;;;;;;;5091620;28;20410;-53
2021/05/07 08:41:08;;;;;;;3.07;2.87;;;;;;;;;;5090612;28;20438;-53
2021/05/07 08:43:34;;;;;;;21.63;12.63;;;;;;;;;;5091726;28;20443;-54
2021/05/07 08:46:07;;;;;;;3.87;3.57;;;;;;;;;;5090705;28;20466;-54
2021/05/07 08:48:34;;;;;;;3.43;3.13;;;;;;;;;;5091512;28;20446;-53
2021/05/07 08:51:00;;;;;;;4.73;3.73;;;;;;;;;;5091220;28;20381;-53
2021/05/07 08:53:26;;;;;;;3.20;3.00;;;;;;;;;;5091071;28;20443;-53
2021/05/07 08:55:52;;;;;;;3.67;3.37;;;;;;;;;;5091073;28;20771;-53
2021/05/07 08:58:19;;;;;;;3.50;3.30;;;;;;;;;;5091430;28;20396;-54
2021/05/07 09:00:45;;;;;;;3.00;2.80;;;;;;;;;;5091135;28;20418;-53
2021/05/07 09:03:13;;;;;;;3.80;3.50;;;;;;;;;;5091280;28;20409;-54
2021/05/07 09:05:38;;;;;;;4.00;3.27;;;;;;;;;;5091420;28;20380;-53
2021/05/07 09:08:05;;;;;;;3.40;3.20;;;;;;;;;;5091087;28;20425;-54
2021/05/07 09:10:32;;;;;;;3.63;3.33;;;;;;;;;;5090819;28;20400;-53
2021/05/07 09:12:58;;;;;;;2.77;2.67;;;;;;;;;;5091307;28;20458;-53
2021/05/07 09:15:24;;;;;;;3.17;2.90;;;;;;;;;;5091281;28;20821;-53
2021/05/07 09:18:01;;;;;;;4.60;2.77;;;;;;;;;;5091016;28;20380;-52
2021/05/07 09:20:34;;;;;;;2.77;2.57;;;;;;;;;;5090869;28;20411;-52
2021/05/07 09:23:03;;;;;;;2.97;2.73;;;;;;;;;;5090714;28;20402;-53
2021/05/07 09:25:28;;;;;;;3.53;3.20;;;;;;;;;;5090980;28;20390;-53
2021/05/07 09:28:04;;;;;;;3.10;2.90;;;;;;;;;;5090779;28;20940;-53
2021/05/07 09:30:30;;;;;;;3.67;3.37;;;;;;;;;;5090958;28;20397;-52
2021/05/07 09:32:58;;;;;;;4.50;4.10;;;;;;;;;;5090787;28;20401;-52
2021/05/07 09:35:28;;;;;;;4.50;2.93;;;;;;;;;;5090911;28;20469;-53
2021/05/07 09:38:07;;;;;;;4.50;3.47;;;;;;;;;;5091188;28;20823;-54
2021/05/07 09:40:34;;;;;;;3.63;3.33;;;;;;;;;;5090981;28;20821;-53
2021/05/07 09:43:07;;;;;;;4.63;4.30;;;;;;;;;;5090931;28;20446;-55
2021/05/07 09:45:34;;;;;;;4.20;3.90;;;;;;;;;;5090860;28;20414;-52
2021/05/07 09:48:00;;;;;;;4.13;3.70;;;;;;;;;;5090750;28;20487;-55
2021/05/07 09:50:37;;;;;;;4.20;3.90;;;;;;;;;;5090839;28;20989;-55
2021/05/07 09:53:09;;;;;;;4.93;4.53;;;;;;;;;;5090941;28;20446;-53
2021/05/07 09:55:35;;;;;;;4.03;3.73;;;;;;;;;;5090798;28;20404;-53
2021/05/07 09:58:02;;;;;;;4.83;4.43;;;;;;;;;;5094925;28;20449;-52
2021/05/07 10:00:29;;;;;;;5.70;5.20;;;;;;;;;;5094359;28;20809;-53
2021/05/07 10:02:55;;;;;;;7.30;5.53;;;;;;;;;;5094650;28;20810;-52
2021/05/07 10:05:23;;;;;;;4.93;4.50;;;;;;;;;;5094739;28;20843;-52
2021/05/07 10:07:49;;;;;;;5.30;4.90;;;;;;;;;;5094609;28;20454;-54
2021/05/07 10:10:15;;;;;;;5.10;4.80;;;;;;;;;;5094294;28;20731;-54
2021/05/07 10:12:42;;;;;;;5.00;4.60;;;;;;;;;;5094951;28;20415;-54
2021/05/07 10:15:08;;;;;;;4.70;4.30;;;;;;;;;;5094531;28;20399;-53
2021/05/07 10:17:34;;;;;;;3.87;3.57;;;;;;;;;;5094604;28;20403;-53
2021/05/07 10:20:01;;;;;;;4.43;4.03;;;;;;;;;;5094236;28;20408;-52
2021/05/07 10:22:37;;;;;;;4.33;4.03;;;;;;;;;;5094192;28;20493;-54
2021/05/07 10:25:12;;;;;;;4.10;3.70;;;;;;;;;;5094356;28;20399;-54
2021/05/07 10:27:46;;;;;;;3.77;3.47;;;;;;;;;;5093935;28;20399;-52
2021/05/07 10:30:21;;;;;;;3.40;3.13;;;;;;;;;;5094046;28;20482;-52
2021/05/07 10:32:55;;;;;;;2.97;2.73;;;;;;;;;;5094206;28;20463;-54
2021/05/07 10:35:28;;;;;;;2.50;2.40;;;;;;;;;;5094361;28;20717;-53
2021/05/07 10:37:54;;;;;;;2.90;2.40;;;;;;;;;;5093812;28;20402;-54
2021/05/07 10:40:24;;;;;;;2.50;2.33;;;;;;;;;;5093905;28;20395;-53
2021/05/07 10:42:57;;;;;;;2.73;2.40;;;;;;;;;;5094058;28;20814;-53
2021/05/07 10:45:38;;;;;;;4.27;2.37;;;;;;;;;;5093948;28;20378;-53
2021/05/07 10:48:13;;;;;;;2.40;2.30;;;;;;;;;;5093745;28;20526;-53
2021/05/07 10:50:40;;;;;;;3.20;2.90;;;;;;;;;;5093551;28;20387;-52
2021/05/07 10:53:06;;;;;;;3.30;2.93;;;;;;;;;;5093575;28;20442;-52
2021/05/07 10:55:33;;;;;;;3.47;3.03;;;;;;;;;;5093895;28;20471;-52
2021/05/07 10:58:01;;;;;;;3.17;2.97;;;;;;;;;;5093713;28;20477;-53
2021/05/07 11:00:39;;;;;;;4.20;3.20;;;;;;;;;;5093565;28;20409;-54
2021/05/07 11:03:05;;;;;;;4.53;3.47;;;;;;;;;;5093604;28;20447;-52
2021/05/07 11:05:45;;;;;;;3.30;3.10;;;;;;;;;;5093597;28;20407;-52
2021/05/07 11:08:11;;;;;;;3.20;3.00;;;;;;;;;;5092788;28;20446;-52
2021/05/07 11:10:37;;;;;;;4.93;3.20;;;;;;;;;;5093184;28;20399;-52
2021/05/07 11:13:03;;;;;;;7.00;3.20;;;;;;;;;;5093539;28;20468;-52
2021/05/07 11:15:29;;;;;;;3.73;2.80;;;;;;;;;;5093218;28;20444;-53
2021/05/07 11:17:58;;;;;;;3.67;3.30;;;;;;;;;;5093461;28;20489;-53
2021/05/07 11:20:33;;;;;;;2.87;2.67;;;;;;;;;;5093045;28;20406;-53
2021/05/07 11:22:59;;;;;;;3.23;2.70;;;;;;;;;;5093776;28;20418;-53
2021/05/07 11:25:25;;;;;;;3.07;2.87;;;;;;;;;;5093249;28;20494;-52
2021/05/07 11:27:51;;;;;;;3.17;2.97;;;;;;;;;;5093247;28;20447;-53
2021/05/07 11:30:17;;;;;;;3.73;3.37;;;;;;;;;;5092667;28;20400;-53
2021/05/07 11:32:43;;;;;;;3.03;2.83;;;;;;;;;;5093095;28;20553;-53
2021/05/07 11:35:10;;;;;;;4.03;2.93;;;;;;;;;;5092850;28;20395;-53
2021/05/07 11:37:38;;;;;;;2.90;2.77;;;;;;;;;;5093073;28;20408;-52
2021/05/07 11:40:07;;;;;;;4.57;2.60;;;;;;;;;;5092818;28;20406;-53
2021/05/07 11:42:35;;;;;;;6.20;2.47;;;;;;;;;;5092120;28;20823;-53
2021/05/07 11:45:07;;;;;;;2.87;2.67;;;;;;;;;;5092755;28;20403;-53
2021/05/07 11:47:34;;;;;;;4.27;2.80;;;;;;;;;;5093239;28;20432;-55
2021/05/07 11:50:00;;;;;;;5.37;2.63;;;;;;;;;;5092709;28;20866;-53
2021/05/07 11:52:36;;;;;;;2.67;2.53;;;;;;;;;;5092804;28;20410;-53
2021/05/07 11:55:03;;;;;;;2.83;2.67;;;;;;;;;;5092541;28;20400;-53
2021/05/07 11:57:33;;;;;;;4.17;2.80;;;;;;;;;;5092690;28;20900;-55
2021/05/07 11:59:59;;;;;;;2.97;2.77;;;;;;;;;;5092320;28;20392;-55
2021/05/07 12:02:29;;;;;;;3.40;2.40;;;;;;;;;;5092438;28;20804;-53
2021/05/07 12:04:55;;;;;;;5.23;2.90;;;;;;;;;;5092501;28;20486;-53
2021/05/07 12:07:27;;;;;;;2.60;2.40;;;;;;;;;;5092282;28;20520;-53
2021/05/07 12:09:54;;;;;;;6.30;2.30;;;;;;;;;;5092082;28;20927;-53
2021/05/07 12:12:20;;;;;;;2.30;2.10;;;;;;;;;;5092121;28;20498;-54
2021/05/07 12:14:49;;;;;;;3.17;2.33;;;;;;;;;;5092041;28;20392;-53
2021/05/07 12:17:16;;;;;;;2.70;2.50;;;;;;;;;;5092134;28;20391;-53
2021/05/07 12:19:42;;;;;;;3.50;2.53;;;;;;;;;;5091844;28;20918;-53
2021/05/07 12:22:08;;;;;;;2.90;2.70;;;;;;;;;;5091831;28;20415;-53
2021/05/07 12:24:34;;;;;;;3.33;3.03;;;;;;;;;;5092110;28;20443;-53
2021/05/07 12:27:00;;;;;;;2.60;2.40;;;;;;;;;;5091935;28;20831;-53
2021/05/07 12:29:35;;;;;;;3.53;3.23;;;;;;;;;;5091604;28;20425;-54
2021/05/07 12:32:05;;;;;;;3.60;2.90;;;;;;;;;;5091807;28;20468;-53
2021/05/07 12:34:31;;;;;;;3.07;2.87;;;;;;;;;;5091955;28;20392;-53
2021/05/07 12:36:58;;;;;;;2.70;2.50;;;;;;;;;;5092142;28;20404;-54
2021/05/07 12:39:26;;;;;;;2.47;2.27;;;;;;;;;;5091507;28;20891;-53
2021/05/07 12:41:54;;;;;;;3.07;2.87;;;;;;;;;;5091707;28;20430;-53
2021/05/07 12:44:20;;;;;;;3.43;3.10;;;;;;;;;;5091469;28;20488;-53
2021/05/07 12:46:46;;;;;;;3.80;3.50;;;;;;;;;;5091831;28;20378;-52
2021/05/07 12:49:12;;;;;;;2.80;2.47;;;;;;;;;;5091040;28;20512;-53
2021/05/07 12:51:38;;;;;;;2.83;2.20;;;;;;;;;;5091173;28;20472;-54
2021/05/07 12:54:04;;;;;;;2.87;2.67;;;;;;;;;;5091426;28;20792;-54
2021/05/07 12:56:30;;;;;;;2.63;2.43;;;;;;;;;;5091627;28;20379;-53
2021/05/07 12:58:57;;;;;;;2.67;2.47;;;;;;;;;;5091033;28;20402;-55
2021/05/07 13:01:24;;;;;;;2.27;2.17;;;;;;;;;;5091309;28;20400;-53
2021/05/07 13:03:50;;;;;;;2.40;2.30;;;;;;;;;;5091571;28;20395;-54
2021/05/07 13:06:16;;;;;;;3.23;2.50;;;;;;;;;;5091275;28;20422;-54
2021/05/07 13:08:43;;;;;;;4.00;2.67;;;;;;;;;;5090758;28;20902;-53
2021/05/07 13:11:09;;;;;;;7.57;2.90;;;;;;;;;;5091281;28;20404;-54
2021/05/07 13:13:41;;;;;;;4.67;2.90;;;;;;;;;;5091061;28;20502;-53
2021/05/07 13:16:07;;;;;;;2.30;2.20;;;;;;;;;;5091063;28;20392;-54
2021/05/07 13:18:33;;;;;;;2.90;1.97;;;;;;;;;;5090925;28;20780;-54
2021/05/07 13:20:59;;;;;;;2.40;2.20;;;;;;;;;;5090874;28;20410;-54
2021/05/07 13:23:27;;;;;;;2.60;2.40;;;;;;;;;;5090925;28;20427;-54
2021/05/07 13:25:54;;;;;;;3.30;2.20;;;;;;;;;;5090960;28;20920;-53
2021/05/07 13:28:20;;;;;;;3.23;2.83;;;;;;;;;;5091094;28;20462;-54
2021/05/07 13:30:46;;;;;;;2.87;2.67;;;;;;;;;;5090033;28;20853;-53
2021/05/07 13:33:12;;;;;;;3.20;3.00;;;;;;;;;;5091169;28;20937;-53
2021/05/07 13:35:43;;;;;;;3.57;3.30;;;;;;;;;;5089940;28;20471;-54
2021/05/07 13:38:09;;;;;;;4.43;3.30;;;;;;;;;;5090320;28;21089;-52
2021/05/07 13:40:35;;;;;;;3.80;3.50;;;;;;;;;;5084254;28;20463;-53
2021/05/07 13:43:02;;;;;;;3.40;2.90;;;;;;;;;;5079513;28;20463;-52
2021/05/07 13:45:28;;;;;;;3.63;3.27;;;;;;;;;;5074573;28;20403;-54
2021/05/07 13:47:55;;;;;;;8.10;3.80;;;;;;;;;;5080650;28;20471;-54
2021/05/07 13:50:23;;;;;;;4.07;3.50;;;;;;;;;;5080301;28;20375;-53
2021/05/07 13:52:49;;;;;;;3.43;3.20;;;;;;;;;;5085185;28;20409;-52
2021/05/07 13:55:15;;;;;;;4.03;3.50;;;;;;;;;;5089207;28;20536;-53
2021/05/07 13:57:41;;;;;;;3.93;3.53;;;;;;;;;;5089772;28;20478;-52
2021/05/07 14:00:08;;;;;;;5.80;4.43;;;;;;;;;;5088708;28;20857;-52
2021/05/07 14:02:34;;;;;;;5.50;5.00;;;;;;;;;;5090424;28;20427;-52
2021/05/07 14:05:00;;;;;;;6.43;3.70;;;;;;;;;;5089767;28;20386;-52
2021/05/07 14:07:26;;;;;;;4.83;4.43;;;;;;;;;;5090139;28;20404;-52
2021/05/07 14:09:52;;;;;;;4.93;4.53;;;;;;;;;;5096455;28;20485;-52
2021/05/07 14:12:18;;;;;;;6.00;5.50;;;;;;;;;;5105101;28;20934;-52
2021/05/07 14:14:46;;;;;;;5.07;4.67;;;;;;;;;;5099567;28;20606;-52
2021/05/07 14:17:13;;;;;;;6.73;5.00;;;;;;;;;;5096775;28;20422;-52
2021/05/07 14:19:40;;;;;;;5.70;5.17;;;;;;;;;;5106749;28;20467;-53
2021/05/07 14:22:06;;;;;;;4.80;4.40;;;;;;;;;;5094276;28;20794;-52
2021/05/07 14:24:32;;;;;;;6.00;4.20;;;;;;;;;;5102651;28;20411;-52
2021/05/07 14:26:58;;;;;;;6.60;4.87;;;;;;;;;;5101136;28;20899;-53
2021/05/07 14:29:24;;;;;;;5.33;4.83;;;;;;;;;;5094512;28;20981;-52
2021/05/07 14:31:50;;;;;;;5.33;4.87;;;;;;;;;;5087005;28;20521;-56